createdAt,value
2018-06-25T00:00:08.876Z,1.30
2018-06-25T00:02:37.270Z,1.20
2018-06-25T00:05:05.724Z,1.10
2018-06-25T00:07:34.116Z,1.30
2018-06-25T00:10:02.508Z,1.27
2018-06-25T00:12:31.029Z,1.20
2018-06-25T00:14:59.518Z,1.03
2018-06-25T00:17:27.903Z,1.20
2018-06-25T00:19:56.444Z,1.17
2018-06-25T00:22:24.928Z,1.50
2018-06-25T00:24:53.499Z,1.20
2018-06-25T00:27:21.987Z,1.30
2018-06-25T00:29:50.517Z,1.40
2018-06-25T00:32:18.953Z,1.23
2018-06-25T00:34:47.448Z,1.30
2018-06-25T00:37:15.831Z,1.10
2018-06-25T00:39:44.334Z,1.30
2018-06-25T00:42:12.761Z,1.10
2018-06-25T00:44:41.156Z,1.10
2018-06-25T00:47:09.561Z,1.30
2018-06-25T00:49:38.001Z,1.20
2018-06-25T00:52:06.556Z,1.10
2018-06-25T00:54:34.968Z,1.10
2018-06-25T00:57:03.353Z,1.30
2018-06-25T00:59:42.868Z,1.37
2018-06-25T01:02:11.448Z,1.50
2018-06-25T01:04:39.888Z,1.30
2018-06-25T01:07:08.416Z,1.20
2018-06-25T01:09:36.812Z,1.17
2018-06-25T01:12:05.292Z,1.10
2018-06-25T01:14:33.747Z,1.30
2018-06-25T01:17:02.217Z,1.20
2018-06-25T01:19:30.643Z,1.30
2018-06-25T01:21:59.076Z,1.30
2018-06-25T01:24:27.550Z,1.23
2018-06-25T01:26:56.042Z,1.50
2018-06-25T01:29:24.497Z,1.30
2018-06-25T01:31:52.969Z,1.40
2018-06-25T01:34:21.450Z,1.20
2018-06-25T01:36:49.835Z,1.20
2018-06-25T01:39:18.216Z,1.50
2018-06-25T01:41:46.716Z,1.10
2018-06-25T01:44:14.947Z,1.20
2018-06-25T01:46:43.362Z,1.60
2018-06-25T01:49:11.826Z,1.30
2018-06-25T01:51:40.348Z,1.50
2018-06-25T01:54:08.883Z,1.37
2018-06-25T01:56:37.417Z,1.20
2018-06-25T01:59:05.613Z,1.40
2018-06-25T02:01:34.098Z,1.43
2018-06-25T02:04:02.523Z,1.30
2018-06-25T02:06:30.904Z,1.30
2018-06-25T02:08:59.461Z,1.40
2018-06-25T02:11:27.912Z,1.50
2018-06-25T02:13:56.380Z,1.60
2018-06-25T02:16:24.866Z,1.50
2018-06-25T02:18:53.305Z,1.60
2018-06-25T02:21:21.637Z,1.40
2018-06-25T02:23:50.136Z,1.50
2018-06-25T02:26:18.552Z,1.40
2018-06-25T02:28:46.949Z,1.40
2018-06-25T02:31:15.314Z,1.40
2018-06-25T02:33:43.827Z,1.33
2018-06-25T02:36:12.189Z,1.50
2018-06-25T02:38:40.763Z,1.40
2018-06-25T02:41:09.330Z,1.43
2018-06-25T02:43:37.844Z,1.40
2018-06-25T02:46:06.300Z,1.40
2018-06-25T02:48:34.786Z,1.47
2018-06-25T02:51:03.318Z,1.37
2018-06-25T02:53:31.730Z,1.33
2018-06-25T02:56:00.266Z,1.10
2018-06-25T02:58:28.696Z,1.50
2018-06-25T03:00:57.140Z,1.60
2018-06-25T03:03:25.452Z,1.30
2018-06-25T03:05:54.800Z,1.33
2018-06-25T03:08:23.179Z,1.40
2018-06-25T03:10:52.948Z,1.40
2018-06-25T03:13:21.373Z,1.23
2018-06-25T03:15:49.856Z,1.40
2018-06-25T03:18:18.429Z,1.30
2018-06-25T03:20:46.900Z,1.53
2018-06-25T03:23:15.392Z,1.50
2018-06-25T03:25:43.925Z,1.50
2018-06-25T03:28:12.409Z,1.20
2018-06-25T03:30:40.775Z,1.30
2018-06-25T03:33:09.169Z,1.30
2018-06-25T03:35:37.515Z,1.40
2018-06-25T03:38:06.020Z,1.50
2018-06-25T03:40:34.537Z,1.27
2018-06-25T03:43:02.619Z,1.50
2018-06-25T03:45:31.085Z,1.33
2018-06-25T03:47:59.594Z,1.33
2018-06-25T03:50:28.092Z,1.50
2018-06-25T03:52:56.494Z,1.40
2018-06-25T03:55:24.932Z,1.40
2018-06-25T03:57:53.427Z,1.53
2018-06-25T04:00:22.152Z,1.63
2018-06-25T04:02:50.568Z,1.50
2018-06-25T04:05:18.933Z,1.30
2018-06-25T04:07:47.401Z,1.23
2018-06-25T04:10:15.957Z,1.50
2018-06-25T04:12:44.347Z,1.50
2018-06-25T04:15:12.828Z,1.27
2018-06-25T04:17:41.306Z,1.40
2018-06-25T04:20:09.836Z,1.43
2018-06-25T04:22:38.306Z,1.50
2018-06-25T04:25:06.811Z,1.53
2018-06-25T04:27:35.297Z,1.30
2018-06-25T04:30:04.052Z,1.40
2018-06-25T04:32:32.545Z,1.70
2018-06-25T04:35:01.076Z,1.70
2018-06-25T04:37:29.377Z,1.50
2018-06-25T04:39:57.788Z,1.60
2018-06-25T04:42:26.265Z,1.83
2018-06-25T04:44:54.747Z,1.90
2018-06-25T04:47:23.067Z,1.80
2018-06-25T04:49:51.228Z,1.83
2018-06-25T04:52:19.606Z,1.70
2018-06-25T04:54:48.045Z,1.63
2018-06-25T04:57:16.583Z,1.87
2018-06-25T04:59:45.005Z,1.53
2018-06-25T05:02:13.413Z,1.37
2018-06-25T05:04:41.752Z,1.50
2018-06-25T05:07:10.230Z,1.60
2018-06-25T05:09:38.470Z,1.57
2018-06-25T05:12:06.991Z,1.60
2018-06-25T05:14:46.788Z,1.50
2018-06-25T05:17:15.248Z,1.80
2018-06-25T05:19:43.754Z,1.50
2018-06-25T05:22:12.285Z,1.50
2018-06-25T05:24:40.785Z,1.50
2018-06-25T05:27:09.205Z,1.60
2018-06-25T05:29:37.691Z,1.53
2018-06-25T05:32:06.167Z,1.70
2018-06-25T05:34:34.797Z,1.40
2018-06-25T05:37:03.300Z,1.70
2018-06-25T05:39:31.681Z,1.60
2018-06-25T05:42:00.070Z,1.83
2018-06-25T05:44:28.555Z,1.60
2018-06-25T05:46:56.886Z,1.50
2018-06-25T05:49:29.118Z,1.90
2018-06-25T05:51:59.427Z,1.83
2018-06-25T05:54:27.797Z,1.70
2018-06-25T05:56:56.252Z,1.43
2018-06-25T05:59:24.699Z,1.67
2018-06-25T06:01:53.105Z,1.60
2018-06-25T06:04:21.648Z,1.23
2018-06-25T06:06:50.136Z,1.40
2018-06-25T06:09:18.608Z,1.70
2018-06-25T06:11:47.101Z,1.60
2018-06-25T06:14:18.575Z,1.50
2018-06-25T06:16:46.886Z,1.50
2018-06-25T06:19:15.328Z,1.70
2018-06-25T06:21:43.731Z,1.70
2018-06-25T06:24:12.061Z,1.50
2018-06-25T06:26:40.649Z,2.00
2018-06-25T06:29:09.264Z,1.90
2018-06-25T06:31:37.732Z,1.57
2018-06-25T06:34:06.191Z,1.60
2018-06-25T06:36:34.557Z,1.63
2018-06-25T06:39:03.211Z,1.67
2018-06-25T06:41:31.612Z,1.60
2018-06-25T06:44:00.075Z,1.47
2018-06-25T06:46:28.441Z,1.40
2018-06-25T06:48:56.913Z,1.83
2018-06-25T06:51:25.362Z,1.80
2018-06-25T06:53:53.829Z,1.70
2018-06-25T06:56:22.566Z,1.60
2018-06-25T06:58:51.043Z,1.60
2018-06-25T07:01:19.518Z,1.67
2018-06-25T07:03:47.888Z,1.60
2018-06-25T07:06:16.338Z,1.93
2018-06-25T07:08:44.876Z,1.60
2018-06-25T07:11:17.139Z,1.50
2018-06-25T07:13:45.521Z,1.63
2018-06-25T07:16:13.992Z,1.77
2018-06-25T07:18:42.129Z,1.60
2018-06-25T07:21:10.775Z,1.73
2018-06-25T07:23:39.773Z,1.50
2018-06-25T07:26:08.190Z,1.70
2018-06-25T07:28:36.622Z,1.60
2018-06-25T07:31:05.049Z,1.50
2018-06-25T07:33:33.481Z,1.60
2018-06-25T07:36:02.036Z,1.67
2018-06-25T07:38:30.488Z,1.83
2018-06-25T07:40:58.985Z,1.90
2018-06-25T07:43:27.289Z,1.60
2018-06-25T07:45:57.168Z,1.80
2018-06-25T07:48:25.660Z,1.73
2018-06-25T07:50:56.313Z,1.93
2018-06-25T07:53:24.752Z,1.70
2018-06-25T07:55:55.309Z,1.80
2018-06-25T07:58:23.863Z,2.20
2018-06-25T08:00:54.336Z,1.93
2018-06-25T08:03:22.798Z,1.87
2018-06-25T08:05:51.438Z,1.60
2018-06-25T08:08:19.932Z,1.80
2018-06-25T08:10:48.348Z,1.60
2018-06-25T08:13:16.724Z,1.90
2018-06-25T08:15:45.137Z,1.80
2018-06-25T08:18:13.633Z,1.67
2018-06-25T08:20:42.126Z,1.70
2018-06-25T08:23:10.572Z,1.53
2018-06-25T08:25:39.070Z,1.60
2018-06-25T08:28:07.672Z,1.70
2018-06-25T08:30:36.038Z,1.50
2018-06-25T08:33:04.633Z,1.60
2018-06-25T08:35:33.609Z,1.40
2018-06-25T08:38:02.056Z,1.60
2018-06-25T08:40:30.528Z,1.80
2018-06-25T08:42:59.052Z,1.67
2018-06-25T08:45:27.501Z,1.57
2018-06-25T08:47:55.656Z,1.33
2018-06-25T08:50:23.901Z,1.20
2018-06-25T08:52:52.374Z,1.20
2018-06-25T08:55:21.028Z,1.10
2018-06-25T08:57:49.528Z,1.00
2018-06-25T09:00:17.912Z,1.00
2018-06-25T09:02:46.450Z,1.10
2018-06-25T09:05:14.975Z,1.10
2018-06-25T09:07:43.404Z,1.30
2018-06-25T09:10:11.847Z,1.30
2018-06-25T09:12:40.409Z,1.23
2018-06-25T09:15:34.092Z,1.17
2018-06-25T09:18:02.614Z,1.00
2018-06-25T09:20:31.362Z,1.40
2018-06-25T09:22:59.883Z,1.10
2018-06-25T09:25:28.317Z,1.30
2018-06-25T09:28:01.261Z,1.30
2018-06-25T09:30:29.811Z,1.20
2018-06-25T09:32:58.285Z,1.30
2018-06-25T09:35:27.313Z,1.20
2018-06-25T09:37:55.894Z,1.20
2018-06-25T09:40:24.386Z,1.07
2018-06-25T09:42:52.954Z,1.10
2018-06-25T09:45:21.683Z,0.90
2018-06-25T09:47:50.265Z,1.10
2018-06-25T09:50:18.874Z,1.10
2018-06-25T09:52:47.067Z,1.10
2018-06-25T09:55:15.512Z,1.10
2018-06-25T09:57:44.040Z,1.00
2018-06-25T10:00:16.976Z,1.10
2018-06-25T10:02:45.364Z,1.20
2018-06-25T10:05:13.828Z,0.90
2018-06-25T10:07:42.292Z,1.00
2018-06-25T10:10:10.704Z,1.10
2018-06-25T10:12:39.087Z,0.90
2018-06-25T10:15:49.263Z,1.00
2018-06-25T10:18:17.689Z,0.90
2018-06-25T10:20:46.229Z,1.07
2018-06-25T10:23:14.681Z,1.10
2018-06-25T10:25:42.828Z,1.17
2018-06-25T10:28:11.374Z,1.10
2018-06-25T10:30:39.758Z,0.90
2018-06-25T10:33:08.308Z,1.07
2018-06-25T10:35:36.679Z,1.20
2018-06-25T10:38:05.269Z,1.10
2018-06-25T10:40:33.800Z,1.23
2018-06-25T10:43:02.228Z,1.20
2018-06-25T10:45:30.722Z,1.00
2018-06-25T10:47:59.137Z,1.20
2018-06-25T10:50:27.627Z,1.13
2018-06-25T10:52:56.147Z,1.20
2018-06-25T10:55:24.620Z,1.10
2018-06-25T10:57:53.040Z,1.20
2018-06-25T11:00:21.828Z,0.90
2018-06-25T11:02:50.179Z,0.93
2018-06-25T11:05:18.696Z,1.10
2018-06-25T11:07:47.211Z,0.90
2018-06-25T11:10:15.621Z,0.80
2018-06-25T11:12:44.178Z,0.90
2018-06-25T11:15:49.223Z,0.90
2018-06-25T11:18:17.674Z,0.90
2018-06-25T11:20:46.111Z,0.90
2018-06-25T11:23:14.652Z,0.80
2018-06-25T11:25:43.120Z,0.60
2018-06-25T11:28:11.505Z,0.80
2018-06-25T11:30:39.946Z,0.80
2018-06-25T11:33:08.440Z,0.90
2018-06-25T11:35:36.897Z,0.93
2018-06-25T11:38:05.287Z,0.70
2018-06-25T11:40:33.519Z,0.70
2018-06-25T11:43:02.104Z,0.70
2018-06-25T11:45:30.635Z,0.73
2018-06-25T11:47:59.162Z,0.60
2018-06-25T11:50:27.708Z,0.70
2018-06-25T11:52:56.181Z,0.60
2018-06-25T11:55:24.946Z,0.60
2018-06-25T11:57:53.388Z,0.60
2018-06-25T12:00:22.071Z,0.77
2018-06-25T12:02:50.747Z,0.70
2018-06-25T12:05:19.151Z,0.70
2018-06-25T12:07:47.541Z,0.70
2018-06-25T12:10:16.025Z,0.80
2018-06-25T12:12:44.572Z,0.60
2018-06-25T12:15:56.035Z,0.80
2018-06-25T12:18:24.488Z,0.70
2018-06-25T12:20:54.486Z,0.70
2018-06-25T12:23:22.832Z,0.70
2018-06-25T12:25:51.283Z,0.70
2018-06-25T12:28:19.749Z,0.60
2018-06-25T12:30:48.070Z,0.70
2018-06-25T12:33:16.475Z,0.80
2018-06-25T12:35:45.014Z,0.43
2018-06-25T12:38:13.474Z,0.70
2018-06-25T12:40:42.240Z,0.50
2018-06-25T12:43:10.663Z,0.60
2018-06-25T12:45:39.089Z,0.50
2018-06-25T12:48:07.470Z,0.60
2018-06-25T12:50:35.935Z,0.43
2018-06-25T12:53:04.492Z,0.43
2018-06-25T12:55:32.979Z,0.50
2018-06-25T12:58:01.382Z,0.40
2018-06-25T13:00:29.857Z,0.50
2018-06-25T13:02:58.353Z,0.50
2018-06-25T13:05:26.853Z,0.57
2018-06-25T13:07:55.248Z,0.60
2018-06-25T13:10:24.286Z,0.43
2018-06-25T13:12:52.784Z,0.40
2018-06-25T13:18:46.609Z,0.40
2018-06-25T13:21:15.149Z,0.53
2018-06-25T13:23:43.697Z,0.90
2018-06-25T13:26:12.218Z,0.70
2018-06-25T13:28:40.660Z,0.60
2018-06-25T13:31:09.212Z,0.77
2018-06-25T13:33:37.661Z,0.60
2018-06-25T13:36:06.237Z,1.43
2018-06-25T13:38:34.819Z,0.80
2018-06-25T13:41:03.227Z,0.57
2018-06-25T13:43:31.859Z,0.40
2018-06-25T13:46:00.285Z,0.77
2018-06-25T13:48:28.785Z,0.70
2018-06-25T13:50:57.991Z,0.60
2018-06-25T13:53:26.427Z,0.50
2018-06-25T13:55:56.644Z,1.37
2018-06-25T13:58:25.058Z,2.90
2018-06-25T14:00:53.458Z,1.60
2018-06-25T14:03:21.908Z,0.70
2018-06-25T14:05:50.553Z,0.70
2018-06-25T14:08:18.941Z,0.60
2018-06-25T14:10:47.481Z,0.70
2018-06-25T14:13:15.909Z,0.60
2018-06-25T14:16:31.889Z,0.60
2018-06-25T14:19:00.451Z,0.83
2018-06-25T14:21:28.954Z,0.60
2018-06-25T14:24:02.920Z,0.50
2018-06-25T14:26:36.873Z,0.60
2018-06-25T14:29:09.934Z,0.60
2018-06-25T14:31:38.233Z,0.60
2018-06-25T14:34:12.148Z,0.60
2018-06-25T14:36:40.478Z,0.60
2018-06-25T14:39:10.040Z,0.57
2018-06-25T14:41:38.602Z,0.47
2018-06-25T14:44:07.513Z,0.43
2018-06-25T14:46:36.170Z,0.67
2018-06-25T14:49:04.783Z,0.50
2018-06-25T14:51:33.268Z,0.60
2018-06-25T14:54:02.111Z,1.37
2018-06-25T14:56:30.688Z,3.90
2018-06-25T14:58:59.199Z,1.20
2018-06-25T15:01:27.656Z,0.73
2018-06-25T15:03:56.137Z,0.50
2018-06-25T15:06:24.724Z,0.60
2018-06-25T15:08:52.836Z,0.60
2018-06-25T15:11:21.775Z,0.57
2018-06-25T15:13:50.206Z,0.50
2018-06-25T15:16:46.920Z,0.60
2018-06-25T15:19:15.448Z,0.60
2018-06-25T15:21:43.959Z,0.60
2018-06-25T15:24:12.622Z,0.70
2018-06-25T15:26:41.050Z,0.70
2018-06-25T15:29:10.010Z,0.60
2018-06-25T15:31:38.494Z,0.57
2018-06-25T15:34:06.992Z,0.60
2018-06-25T15:36:35.517Z,0.50
2018-06-25T15:39:06.204Z,0.60
2018-06-25T15:41:34.872Z,0.60
2018-06-25T15:44:03.703Z,0.70
2018-06-25T15:46:32.300Z,0.50
2018-06-25T15:49:00.603Z,0.53
2018-06-25T15:51:29.124Z,0.60
2018-06-25T15:53:58.055Z,0.70
2018-06-25T15:56:26.592Z,0.70
2018-06-25T15:58:54.977Z,0.60
2018-06-25T16:01:23.372Z,0.60
2018-06-25T16:03:51.877Z,0.50
2018-06-25T16:06:20.228Z,0.50
2018-06-25T16:08:48.803Z,0.40
2018-06-25T16:11:21.077Z,0.40
2018-06-25T16:13:49.531Z,0.60
2018-06-25T16:16:58.868Z,0.60
2018-06-25T16:19:27.375Z,0.50
2018-06-25T16:21:56.025Z,0.50
2018-06-25T16:24:24.676Z,0.50
2018-06-25T16:26:53.129Z,0.60
2018-06-25T16:29:21.532Z,0.60
2018-06-25T16:31:50.026Z,0.60
2018-06-25T16:34:18.506Z,0.60
2018-06-25T16:36:46.992Z,0.53
2018-06-25T16:39:15.384Z,0.60
2018-06-25T16:41:43.972Z,0.50
2018-06-25T16:44:12.115Z,0.50
2018-06-25T16:46:40.575Z,0.50
2018-06-25T16:49:08.993Z,0.60
2018-06-25T16:51:37.583Z,0.40
2018-06-25T16:54:06.050Z,0.60
2018-06-25T16:56:34.501Z,0.57
2018-06-25T16:59:03.046Z,0.67
2018-06-25T17:01:31.856Z,0.60
2018-06-25T17:04:00.237Z,0.70
2018-06-25T17:06:28.368Z,0.50
2018-06-25T17:08:56.732Z,0.60
2018-06-25T17:11:25.378Z,0.67
2018-06-25T17:13:54.088Z,0.60
2018-06-25T17:17:12.416Z,0.60
2018-06-25T17:19:40.491Z,0.50
2018-06-25T17:22:09.130Z,0.67
2018-06-25T17:24:37.717Z,0.70
2018-06-25T17:27:06.316Z,0.80
2018-06-25T17:29:35.117Z,0.60
2018-06-25T17:32:03.920Z,0.60
2018-06-25T17:34:32.668Z,0.70
2018-06-25T17:37:01.437Z,0.60
2018-06-25T17:39:30.483Z,0.70
2018-06-25T17:41:59.116Z,0.53
2018-06-25T17:44:27.796Z,0.80
2018-06-25T17:46:56.700Z,0.50
2018-06-25T17:49:25.496Z,0.70
2018-06-25T17:51:54.685Z,0.70
2018-06-25T17:54:23.759Z,0.70
2018-06-25T17:56:53.539Z,0.70
2018-06-25T17:59:23.469Z,0.70
2018-06-25T18:01:53.276Z,0.70
2018-06-25T18:04:23.131Z,0.60
2018-06-25T18:06:53.313Z,0.60
2018-06-25T18:09:22.460Z,0.80
2018-06-25T18:11:51.791Z,0.70
2018-06-25T18:14:41.751Z,0.50
2018-06-25T18:17:23.486Z,0.60
2018-06-25T18:19:53.699Z,0.80
2018-06-25T18:22:22.949Z,0.87
2018-06-25T18:24:52.159Z,0.90
2018-06-25T18:27:21.454Z,0.70
2018-06-25T18:29:51.519Z,0.60
2018-06-25T18:32:20.743Z,0.80
2018-06-25T18:34:49.951Z,0.90
2018-06-25T18:37:19.574Z,0.80
2018-06-25T18:39:49.713Z,0.80
2018-06-25T18:42:19.340Z,0.70
2018-06-25T18:44:49.210Z,0.87
2018-06-25T18:47:18.385Z,1.10
2018-06-25T18:49:47.767Z,0.90
2018-06-25T18:52:17.929Z,1.00
2018-06-25T18:54:48.865Z,0.90
2018-06-25T18:57:18.346Z,1.30
2018-06-25T18:59:47.629Z,1.20
2018-06-25T19:02:17.909Z,1.47
2018-06-25T19:04:47.865Z,1.20
2018-06-25T19:07:17.201Z,1.13
2018-06-25T19:09:46.441Z,0.90
2018-06-25T19:12:16.625Z,1.00
2018-06-25T19:15:22.560Z,1.10
2018-06-25T19:17:51.820Z,1.20
2018-06-25T19:20:21.534Z,0.90
2018-06-25T19:22:50.780Z,1.07
2018-06-25T19:25:20.635Z,0.90
2018-06-25T19:27:49.844Z,0.80
2018-06-25T19:30:19.321Z,1.03
2018-06-25T19:32:48.704Z,1.10
2018-06-25T19:35:18.887Z,0.77
2018-06-25T19:37:48.185Z,1.23
2018-06-25T19:40:18.833Z,1.20
2018-06-25T19:42:48.118Z,1.80
2018-06-25T19:45:18.994Z,1.40
2018-06-25T19:47:49.236Z,1.00
2018-06-25T19:50:18.693Z,0.90
2018-06-25T19:52:47.908Z,1.03
2018-06-25T19:55:17.333Z,1.00
2018-06-25T19:57:46.588Z,0.90
2018-06-25T20:00:15.996Z,1.00
2018-06-25T20:02:45.346Z,0.90
2018-06-25T20:05:14.676Z,0.90
2018-06-25T20:07:43.933Z,1.00
2018-06-25T20:10:13.163Z,0.90
2018-06-25T20:12:42.433Z,0.97
2018-06-25T20:15:57.328Z,0.90
2018-06-25T20:18:26.683Z,0.80
2018-06-25T20:20:57.738Z,1.03
2018-06-25T20:23:26.979Z,1.00
2018-06-25T20:26:39.804Z,0.83
2018-06-25T20:29:09.760Z,0.90
2018-06-25T20:31:39.588Z,0.80
2018-06-25T20:34:09.284Z,0.90
2018-06-25T20:36:38.622Z,1.00
2018-06-25T20:39:10.628Z,1.00
2018-06-25T20:41:39.922Z,1.10
2018-06-25T20:44:09.032Z,1.10
2018-06-25T20:46:39.136Z,0.80
2018-06-25T20:49:08.525Z,0.70
2018-06-25T20:51:37.629Z,0.90
2018-06-25T20:54:06.064Z,0.90
2018-06-25T20:56:35.411Z,0.73
2018-06-25T20:59:05.242Z,0.70
2018-06-25T21:01:33.860Z,0.80
2018-06-25T21:04:02.312Z,0.80
2018-06-25T21:06:30.708Z,0.80
2018-06-25T21:08:59.122Z,0.90
2018-06-25T21:11:27.538Z,0.80
2018-06-25T21:13:56.355Z,0.60
2018-06-25T21:19:55.218Z,0.70
2018-06-25T21:22:24.097Z,0.70
2018-06-25T21:24:52.560Z,0.80
2018-06-25T21:27:21.159Z,0.80
2018-06-25T21:29:49.586Z,0.70
2018-06-25T21:32:17.997Z,0.80
2018-06-25T21:34:46.336Z,0.87
2018-06-25T21:37:15.324Z,0.80
2018-06-25T21:39:43.820Z,0.80
2018-06-25T21:42:12.595Z,0.63
2018-06-25T21:44:41.117Z,0.70
2018-06-25T21:47:09.577Z,0.70
2018-06-25T21:49:38.118Z,0.70
2018-06-25T21:52:06.758Z,0.90
2018-06-25T21:54:35.443Z,0.80
2018-06-25T21:57:03.979Z,0.80
2018-06-25T21:59:32.798Z,0.57
2018-06-25T22:02:01.392Z,0.70
2018-06-25T22:04:29.924Z,0.80
2018-06-25T22:06:58.343Z,0.73
2018-06-25T22:09:26.909Z,0.60
2018-06-25T22:11:55.848Z,0.90
2018-06-25T22:14:24.581Z,0.80
2018-06-25T22:16:53.483Z,0.70
2018-06-25T22:19:21.971Z,0.80
2018-06-25T22:21:50.861Z,0.83
2018-06-25T22:24:19.800Z,0.70
2018-06-25T22:26:48.680Z,0.70
2018-06-25T22:29:17.533Z,1.00
2018-06-25T22:31:46.450Z,0.80
2018-06-25T22:34:14.953Z,0.60
2018-06-25T22:36:43.981Z,0.80
2018-06-25T22:39:12.864Z,0.73
2018-06-25T22:41:41.775Z,0.80
2018-06-25T22:44:12.224Z,0.90
2018-06-25T22:46:41.811Z,0.70
2018-06-25T22:49:10.563Z,1.00
2018-06-25T22:51:39.074Z,0.77
2018-06-25T22:54:07.851Z,0.73
2018-06-25T22:56:36.540Z,0.90
2018-06-25T22:59:05.594Z,0.70
2018-06-25T23:01:34.267Z,0.80
2018-06-25T23:04:03.321Z,1.00
2018-06-25T23:06:32.051Z,0.70
2018-06-25T23:09:00.731Z,0.80
2018-06-25T23:11:29.269Z,0.70
2018-06-25T23:13:57.872Z,0.80
2018-06-25T23:16:26.707Z,0.90
2018-06-25T23:18:55.547Z,0.90
2018-06-25T23:21:24.146Z,0.80
2018-06-25T23:23:52.707Z,0.80
2018-06-25T23:26:21.626Z,0.80
2018-06-25T23:28:50.173Z,0.73
2018-06-25T23:31:18.676Z,0.70
2018-06-25T23:33:47.556Z,0.90
2018-06-25T23:36:16.041Z,0.70
2018-06-25T23:38:44.580Z,0.80
2018-06-25T23:41:12.939Z,0.90
2018-06-25T23:43:41.388Z,0.70
2018-06-25T23:46:09.892Z,0.80
2018-06-25T23:48:38.276Z,0.77
2018-06-25T23:51:06.752Z,0.70
2018-06-25T23:53:35.186Z,0.77
2018-06-25T23:56:03.993Z,1.03
2018-06-25T23:58:32.497Z,0.90
